# Tabular Observed and Forecast Hydrograph Information
#
# Location: Mormon Slough - Bellota (MSGC1)
#
# File Generation Time: 09/06/2026 at 06:48 AM PDT
# Data Interval: 1 Hour
#
# Most Recent Date & Time of Maximum Observed: 09/02/2026 at 01:00 PM PDT
# Maximum Observed Stage: 4.34 Feet
# Maximum Observed Flow: 141 cfs
#
# Earliest Date & Time of Maximum Forecast: 09/06/2026 at 07:00 AM PDT
# Maximum Forecast Stage: 4.05 Feet
# Maximum Forecast Flow: 99 cfs
#
# OBSERVED
#
# Date & Time (Local) Stage (Feet) Flow (cfs) Trend Observed Status
# ---------------------------------------------------------------------------------
09/01/2026 06 AM PDT 3.86 71 Normal
09/01/2026 07 AM PDT 3.85 69 - Normal
09/01/2026 08 AM PDT 3.86 71 + Normal
09/01/2026 09 AM PDT 3.97 88 + Normal
09/01/2026 10 AM PDT 4.03 97 + Normal
09/01/2026 11 AM PDT 4.04 98 + Normal
09/01/2026 12 PM PDT 4.04 98 0 Normal
09/01/2026 01 PM PDT 4.05 99 + Normal
09/01/2026 02 PM PDT 4.05 99 0 Normal
09/01/2026 03 PM PDT 4.06 100 + Normal
09/01/2026 04 PM PDT 4.05 99 - Normal
09/01/2026 05 PM PDT 4.05 99 0 Normal
09/01/2026 06 PM PDT 4.05 99 0 Normal
09/01/2026 07 PM PDT 4.05 99 0 Normal
09/01/2026 08 PM PDT 4.05 99 0 Normal
09/01/2026 09 PM PDT 4.05 99 0 Normal
09/01/2026 10 PM PDT 4.04 98 - Normal
09/01/2026 11 PM PDT 4.04 98 0 Normal
09/02/2026 12 AM PDT 4.04 98 0 Normal
09/02/2026 01 AM PDT 4.04 98 0 Normal
09/02/2026 02 AM PDT 4.04 98 0 Normal
09/02/2026 03 AM PDT 4.04 98 0 Normal
09/02/2026 04 AM PDT 4.04 98 0 Normal
09/02/2026 05 AM PDT 4.04 98 0 Normal
09/02/2026 06 AM PDT 4.04 98 0 Normal
09/02/2026 07 AM PDT 4.05 99 + Normal
09/02/2026 08 AM PDT 4.05 99 0 Normal
09/02/2026 09 AM PDT 4.34 141 + Normal
09/02/2026 10 AM PDT 4.33 139 - Normal
09/02/2026 11 AM PDT 4.34 141 + Normal
09/02/2026 12 PM PDT 4.34 141 0 Normal
09/02/2026 01 PM PDT 4.34 141 0 Normal
09/02/2026 02 PM PDT 4.07 102 - Normal
09/02/2026 03 PM PDT 4.03 97 - Normal
09/02/2026 04 PM PDT 4.03 97 0 Normal
09/02/2026 05 PM PDT 4.03 97 0 Normal
09/02/2026 06 PM PDT 4.03 97 0 Normal
09/02/2026 07 PM PDT 4.03 97 0 Normal
09/02/2026 08 PM PDT 4.03 97 0 Normal
09/02/2026 09 PM PDT 4.03 97 0 Normal
09/02/2026 10 PM PDT 4.04 98 + Normal
09/02/2026 11 PM PDT 4.04 98 0 Normal
09/03/2026 12 AM PDT 4.04 98 0 Normal
09/03/2026 01 AM PDT 4.04 98 0 Normal
09/03/2026 02 AM PDT 4.04 98 0 Normal
09/03/2026 03 AM PDT 4.04 98 0 Normal
09/03/2026 04 AM PDT 4.04 98 0 Normal
09/03/2026 05 AM PDT 4.05 99 + Normal
09/03/2026 06 AM PDT 4.05 99 0 Normal
09/03/2026 07 AM PDT 4.05 99 0 Normal
09/03/2026 08 AM PDT 4.05 99 0 Normal
09/03/2026 09 AM PDT 3.97 88 - Normal
09/03/2026 10 AM PDT 3.97 88 0 Normal
09/03/2026 11 AM PDT 3.97 88 0 Normal
09/03/2026 12 PM PDT 3.97 88 0 Normal
09/03/2026 01 PM PDT 3.97 88 0 Normal
09/03/2026 02 PM PDT 3.97 88 0 Normal
09/03/2026 03 PM PDT 3.97 88 0 Normal
09/03/2026 04 PM PDT 3.97 88 0 Normal
09/03/2026 05 PM PDT 3.97 88 0 Normal
09/03/2026 06 PM PDT 3.98 89 + Normal
09/03/2026 07 PM PDT 3.98 89 0 Normal
09/03/2026 08 PM PDT 3.98 89 0 Normal
09/03/2026 09 PM PDT 3.98 89 0 Normal
09/03/2026 10 PM PDT 3.98 89 0 Normal
09/03/2026 11 PM PDT 3.98 89 0 Normal
09/04/2026 12 AM PDT 3.98 89 0 Normal
09/04/2026 01 AM PDT 3.98 89 0 Normal
09/04/2026 02 AM PDT 3.98 89 0 Normal
09/04/2026 03 AM PDT 3.98 89 0 Normal
09/04/2026 04 AM PDT 3.98 89 0 Normal
09/04/2026 05 AM PDT 3.99 91 + Normal
09/04/2026 06 AM PDT 3.99 91 0 Normal
09/04/2026 07 AM PDT 3.99 91 0 Normal
09/04/2026 08 AM PDT 4.04 98 + Normal
09/04/2026 09 AM PDT 4.04 98 0 Normal
09/04/2026 10 AM PDT 4.05 99 + Normal
09/04/2026 11 AM PDT 4.05 99 0 Normal
09/04/2026 12 PM PDT 4.05 99 0 Normal
09/04/2026 01 PM PDT 4.00 93 - Normal
09/04/2026 02 PM PDT 4.00 93 0 Normal
09/04/2026 03 PM PDT 4.06 100 + Normal
09/04/2026 04 PM PDT 4.06 100 0 Normal
09/04/2026 05 PM PDT 4.07 102 + Normal
09/04/2026 06 PM PDT 4.07 102 0 Normal
09/04/2026 07 PM PDT 4.07 102 0 Normal
09/04/2026 08 PM PDT 4.07 102 0 Normal
09/04/2026 09 PM PDT 4.07 102 0 Normal
09/04/2026 10 PM PDT 4.07 102 0 Normal
09/04/2026 11 PM PDT 4.06 100 - Normal
09/05/2026 12 AM PDT 4.06 100 0 Normal
09/05/2026 01 AM PDT 4.06 100 0 Normal
09/05/2026 02 AM PDT 4.06 100 0 Normal
09/05/2026 03 AM PDT 4.06 100 0 Normal
09/05/2026 04 AM PDT 4.06 100 0 Normal
09/05/2026 05 AM PDT 4.06 100 0 Normal
09/05/2026 06 AM PDT 4.06 100 0 Normal
09/05/2026 07 AM PDT 4.06 100 0 Normal
09/05/2026 08 AM PDT 4.06 100 0 Normal
09/05/2026 09 AM PDT 4.06 100 0 Normal
09/05/2026 10 AM PDT 4.06 100 0 Normal
09/05/2026 11 AM PDT 4.06 100 0 Normal
09/05/2026 12 PM PDT 4.06 100 0 Normal
09/05/2026 01 PM PDT 4.06 100 0 Normal
09/05/2026 02 PM PDT 4.06 100 0 Normal
09/05/2026 03 PM PDT 4.06 100 0 Normal
09/05/2026 04 PM PDT 4.06 100 0 Normal
09/05/2026 05 PM PDT 4.06 100 0 Normal
09/05/2026 06 PM PDT 4.06 100 0 Normal
09/05/2026 07 PM PDT 4.07 102 + Normal
09/05/2026 08 PM PDT 4.06 100 - Normal
09/05/2026 09 PM PDT 4.06 100 0 Normal
09/05/2026 10 PM PDT 4.06 100 0 Normal
09/05/2026 11 PM PDT 4.06 100 0 Normal
09/06/2026 12 AM PDT 4.06 100 0 Normal
09/06/2026 01 AM PDT 4.06 100 0 Normal
09/06/2026 02 AM PDT 4.06 100 0 Normal
09/06/2026 03 AM PDT 4.05 99 - Normal
09/06/2026 04 AM PDT 4.05 99 0 Normal
09/06/2026 05 AM PDT 4.05 99 0 Normal
09/06/2026 06 AM PDT 4.05 99 0 Normal
#
# FORECAST
#
# Date & Time (Local) Stage (Feet) Flow (cfs) Trend Forecast Status
# ---------------------------------------------------------------------------------
09/06/2026 07 AM PDT 4.05 99 Normal
09/06/2026 08 AM PDT 4.04 98 - Normal
09/06/2026 09 AM PDT 4.04 98 0 Normal
09/06/2026 10 AM PDT 4.04 98 0 Normal
09/06/2026 11 AM PDT 4.04 98 0 Normal
09/06/2026 12 PM PDT 4.03 97 - Normal
09/06/2026 01 PM PDT 4.03 97 0 Normal
09/06/2026 02 PM PDT 4.03 97 0 Normal
09/06/2026 03 PM PDT 4.03 97 0 Normal
09/06/2026 04 PM PDT 4.03 97 0 Normal
09/06/2026 05 PM PDT 4.03 97 0 Normal
09/06/2026 06 PM PDT 4.03 97 0 Normal
09/06/2026 07 PM PDT 4.03 97 0 Normal
09/06/2026 08 PM PDT 4.03 97 0 Normal
09/06/2026 09 PM PDT 4.03 97 0 Normal
09/06/2026 10 PM PDT 4.03 97 0 Normal
09/06/2026 11 PM PDT 4.03 97 0 Normal
09/07/2026 12 AM PDT 4.03 97 0 Normal
09/07/2026 01 AM PDT 4.03 97 0 Normal
09/07/2026 02 AM PDT 4.03 97 0 Normal
09/07/2026 03 AM PDT 4.03 97 0 Normal
09/07/2026 04 AM PDT 4.03 97 0 Normal
09/07/2026 05 AM PDT 4.03 97 0 Normal
09/07/2026 06 AM PDT 4.03 97 0 Normal
09/07/2026 07 AM PDT 4.03 97 0 Normal
09/07/2026 08 AM PDT 4.03 97 0 Normal
09/07/2026 09 AM PDT 4.03 97 0 Normal
09/07/2026 10 AM PDT 4.03 97 0 Normal
09/07/2026 11 AM PDT 4.03 97 0 Normal
09/07/2026 12 PM PDT 4.03 97 0 Normal
09/07/2026 01 PM PDT 4.03 97 0 Normal
09/07/2026 02 PM PDT 4.03 97 0 Normal
09/07/2026 03 PM PDT 4.03 97 0 Normal
09/07/2026 04 PM PDT 4.03 97 0 Normal
09/07/2026 05 PM PDT 4.03 97 0 Normal
09/07/2026 06 PM PDT 4.04 98 + Normal
09/07/2026 07 PM PDT 4.04 98 0 Normal
09/07/2026 08 PM PDT 4.04 98 0 Normal
09/07/2026 09 PM PDT 4.04 98 0 Normal
09/07/2026 10 PM PDT 4.04 98 0 Normal
09/07/2026 11 PM PDT 4.04 98 0 Normal
09/08/2026 12 AM PDT 4.04 98 0 Normal
09/08/2026 01 AM PDT 4.04 98 0 Normal
09/08/2026 02 AM PDT 4.04 98 0 Normal
09/08/2026 03 AM PDT 4.04 98 0 Normal
09/08/2026 04 AM PDT 4.03 97 - Normal
09/08/2026 05 AM PDT 4.03 97 0 Normal
09/08/2026 06 AM PDT 4.03 97 0 Normal
09/08/2026 07 AM PDT 4.03 97 0 Normal
09/08/2026 08 AM PDT 4.03 97 0 Normal
09/08/2026 09 AM PDT 4.03 97 0 Normal
09/08/2026 10 AM PDT 4.03 97 0 Normal
09/08/2026 11 AM PDT 4.03 97 0 Normal
09/08/2026 12 PM PDT 4.03 97 0 Normal
09/08/2026 01 PM PDT 4.03 97 0 Normal
09/08/2026 02 PM PDT 4.03 97 0 Normal
09/08/2026 03 PM PDT 4.03 97 0 Normal
09/08/2026 04 PM PDT 4.03 97 0 Normal
09/08/2026 05 PM PDT 4.03 97 0 Normal
09/08/2026 06 PM PDT 4.04 98 + Normal
09/08/2026 07 PM PDT 4.04 98 0 Normal
09/08/2026 08 PM PDT 4.04 98 0 Normal
09/08/2026 09 PM PDT 4.04 98 0 Normal
09/08/2026 10 PM PDT 4.04 98 0 Normal
09/08/2026 11 PM PDT 4.04 98 0 Normal
09/09/2026 12 AM PDT 4.04 98 0 Normal
09/09/2026 01 AM PDT 4.04 98 0 Normal
09/09/2026 02 AM PDT 4.04 98 0 Normal
09/09/2026 03 AM PDT 4.04 98 0 Normal
09/09/2026 04 AM PDT 4.04 98 0 Normal
09/09/2026 05 AM PDT 4.04 98 0 Normal
09/09/2026 06 AM PDT 4.04 98 0 Normal
09/09/2026 07 AM PDT 4.04 98 0 Normal
09/09/2026 08 AM PDT 4.04 98 0 Normal
09/09/2026 09 AM PDT 4.04 98 0 Normal
09/09/2026 10 AM PDT 4.04 98 0 Normal
09/09/2026 11 AM PDT 4.04 98 0 Normal
09/09/2026 12 PM PDT 4.04 98 0 Normal
09/09/2026 01 PM PDT 4.04 98 0 Normal
09/09/2026 02 PM PDT 4.04 98 0 Normal
09/09/2026 03 PM PDT 4.04 98 0 Normal
09/09/2026 04 PM PDT 4.04 98 0 Normal
09/09/2026 05 PM PDT 4.04 98 0 Normal
09/09/2026 06 PM PDT 4.04 98 0 Normal
09/09/2026 07 PM PDT 4.04 98 0 Normal
09/09/2026 08 PM PDT 4.04 98 0 Normal
09/09/2026 09 PM PDT 4.04 98 0 Normal
09/09/2026 10 PM PDT 4.04 98 0 Normal
09/09/2026 11 PM PDT 4.04 98 0 Normal
09/10/2026 12 AM PDT 4.04 98 0 Normal
09/10/2026 01 AM PDT 4.04 98 0 Normal
09/10/2026 02 AM PDT 4.04 98 0 Normal
09/10/2026 03 AM PDT 4.04 98 0 Normal
09/10/2026 04 AM PDT 4.04 98 0 Normal
09/10/2026 05 AM PDT 4.04 98 0 Normal
09/10/2026 06 AM PDT 4.04 98 0 Normal
09/10/2026 07 AM PDT 4.04 98 0 Normal
09/10/2026 08 AM PDT 4.04 98 0 Normal
09/10/2026 09 AM PDT 4.04 98 0 Normal
09/10/2026 10 AM PDT 4.04 98 0 Normal
09/10/2026 11 AM PDT 4.04 98 0 Normal
09/10/2026 12 PM PDT 4.04 98 0 Normal
09/10/2026 01 PM PDT 4.04 98 0 Normal
09/10/2026 02 PM PDT 4.04 98 0 Normal
09/10/2026 03 PM PDT 4.04 98 0 Normal
09/10/2026 04 PM PDT 4.04 98 0 Normal
09/10/2026 05 PM PDT 4.04 98 0 Normal
09/10/2026 06 PM PDT 4.04 98 0 Normal
09/10/2026 07 PM PDT 4.04 98 0 Normal
09/10/2026 08 PM PDT 4.04 98 0 Normal
09/10/2026 09 PM PDT 4.04 98 0 Normal
09/10/2026 10 PM PDT 4.04 98 0 Normal
09/10/2026 11 PM PDT 4.04 98 0 Normal
09/11/2026 12 AM PDT 4.04 98 0 Normal
09/11/2026 01 AM PDT 4.04 98 0 Normal
09/11/2026 02 AM PDT 4.04 98 0 Normal
09/11/2026 03 AM PDT 4.04 98 0 Normal
09/11/2026 04 AM PDT 4.04 98 0 Normal
09/11/2026 05 AM PDT 4.04 98 0 Normal
#
# NOTE 1: Stages are rounded to the nearest hundredth (.01) of a foot.
# NOTE 2: Flows are rounded to the nearest (1) cfs.
# NOTE 3: Trends are determined using hourly change in unrounded stage and flow.
# NOTE 4: Maximum Values are determined using unrounded stage and flow.
|